Time;durP1;ratioP1;P1;durP2;ratioP2;P2;SDS_P1;SDS_P2;PMS_P1;PMS_P2;Temp;Humidity;BMP_temperature;BMP_pressure;BME280_temperature;BME280_humidity;BME280_pressure;Samples;Min_cycle;Max_cycle;Signal;HPM_P1;HPM_P2
2022/01/20 00:00:55;;;;;;;12.43;8.40;;;;;;;6.47;100.00;102583.28;4855036;29;20506;-87
2022/01/20 00:03:30;;;;;;;18.40;7.93;;;;;;;6.47;100.00;102588.72;4868389;29;20527;-87
2022/01/20 00:09:07;;;;;;;11.87;8.27;;;;;;;6.37;100.00;102587.69;4864234;29;20493;-87
2022/01/20 00:28:16;;;;;;;13.53;7.77;;;;;;;6.16;100.00;102569.41;4853405;29;20468;-86
2022/01/20 00:31:06;;;;;;;12.80;7.50;;;;;;;6.18;100.00;102582.84;4881443;29;20464;-86
2022/01/20 00:34:10;;;;;;;14.67;7.50;;;;;;;6.16;100.00;102577.53;4857283;29;20450;-88
2022/01/20 00:39:05;;;;;;;14.23;8.73;;;;;;;6.10;100.00;102553.63;4888746;29;20455;-86
2022/01/20 00:41:36;;;;;;;15.63;7.87;;;;;;;6.08;100.00;102560.16;4886093;29;20808;-86
2022/01/20 00:44:06;;;;;;;18.03;8.07;;;;;;;6.03;100.00;102552.34;4891553;29;20451;-86
2022/01/20 00:46:34;;;;;;;10.47;6.87;;;;;;;5.96;100.00;102552.97;4862507;29;20473;-87
2022/01/20 00:49:03;;;;;;;8.97;4.90;;;;;;;5.88;100.00;102557.13;4872014;29;20941;-86
2022/01/20 00:51:31;;;;;;;9.73;5.03;;;;;;;5.78;100.00;102547.06;4885997;29;20449;-86
2022/01/20 00:53:59;;;;;;;8.77;5.57;;;;;;;5.75;100.00;102550.03;4870155;29;20509;-86
2022/01/20 00:56:26;;;;;;;9.80;5.10;;;;;;;5.75;100.00;102552.75;4881613;29;20495;-86
2022/01/20 00:58:55;;;;;;;6.70;4.23;;;;;;;5.71;100.00;102543.09;4866514;29;20522;-86
2022/01/20 01:01:26;;;;;;;6.90;4.77;;;;;;;5.67;100.00;102544.31;4897264;29;20516;-87
2022/01/20 01:03:53;;;;;;;10.73;6.17;;;;;;;5.65;100.00;102532.72;4885452;29;20890;-86
2022/01/20 01:09:02;;;;;;;14.97;7.20;;;;;;;5.65;100.00;102530.00;4888145;29;20460;-87
2022/01/20 01:11:30;;;;;;;11.63;6.00;;;;;;;5.67;100.00;102528.03;4884338;29;20948;-88
2022/01/20 01:14:02;;;;;;;7.93;3.83;;;;;;;5.57;99.88;102524.31;4867868;29;20455;-87
2022/01/20 01:22:30;;;;;;;5.43;3.43;;;;;;;5.39;100.00;102513.88;4871509;29;20830;-86
2022/01/20 01:25:11;;;;;;;12.40;4.60;;;;;;;5.52;100.00;102530.97;4854509;29;20470;-86
2022/01/20 01:27:42;;;;;;;12.80;6.80;;;;;;;5.47;100.00;102522.31;4848173;29;20941;-86
2022/01/20 01:30:43;;;;;;;10.80;6.53;;;;;;;5.39;100.00;102513.00;4864105;29;21190;-87
2022/01/20 01:33:12;;;;;;;7.80;5.10;;;;;;;5.46;100.00;102515.16;4894006;29;20488;-86
2022/01/20 01:35:42;;;;;;;13.80;5.40;;;;;;;5.46;100.00;102514.28;4885707;29;20876;-86
2022/01/20 01:40:41;;;;;;;23.10;8.60;;;;;;;5.33;100.00;102498.09;4884783;29;20448;-86
2022/01/20 01:43:17;;;;;;;11.17;6.93;;;;;;;5.37;100.00;102498.72;4887186;29;20457;-86
2022/01/20 01:45:50;;;;;;;12.87;5.67;;;;;;;5.34;100.00;102505.25;4874418;29;20445;-86
2022/01/20 01:48:31;;;;;;;8.93;6.07;;;;;;;5.39;100.00;102504.88;4870789;29;20457;-86
2022/01/20 01:51:07;;;;;;;10.03;5.97;;;;;;;5.44;100.00;102517.09;4871693;29;20449;-86
2022/01/20 01:54:16;;;;;;;;;;;;;;;;;;;;;
2022/01/20 02:05:19;;;;;;;10.57;5.50;;;;;;;5.15;100.00;102507.63;4808941;29;20454;-87
2022/01/20 02:20:01;;;;;;;10.43;6.00;;;;;;;5.21;100.00;102504.44;4718469;30;20489;-86
2022/01/20 02:23:28;;;;;;;;;;;;;;;;;;;;;
2022/01/20 02:26:15;;;;;;;7.97;3.97;;;;;;;4.91;99.51;102479.66;4711056;30;20455;-86
2022/01/20 02:28:55;;;;;;;14.33;4.30;;;;;;;4.98;100.00;102502.59;4718693;30;20478;-87
2022/01/20 02:31:51;;;;;;;6.13;4.60;;;;;;;4.82;100.00;102460.38;4727228;30;20991;-88
2022/01/20 02:34:27;;;;;;;11.83;5.80;;;;;;;4.85;100.00;102465.56;4736445;29;20463;-86
2022/01/20 02:37:02;;;;;;;16.37;6.07;;;;;;;4.79;100.00;102460.63;4847937;29;20565;-86
2022/01/20 02:44:54;;;;;;;7.77;4.17;;;;;;;4.76;100.00;102450.03;4875721;29;20451;-87
2022/01/20 02:47:52;;;;;;;8.00;4.97;;;;;;;4.77;100.00;102450.91;4835377;29;20472;-87
2022/01/20 02:50:20;;;;;;;9.77;5.33;;;;;;;4.81;100.00;102458.66;4849753;29;20451;-86
2022/01/20 02:52:57;;;;;;;9.17;5.87;;;;;;;4.72;99.63;102443.09;4851289;29;20980;-87
2022/01/20 02:55:31;;;;;;;7.67;5.10;;;;;;;4.60;99.95;102430.50;4848056;29;20458;-87
2022/01/20 02:58:05;;;;;;;13.60;5.40;;;;;;;4.54;100.00;102428.22;4865294;29;20498;-86
2022/01/20 03:00:48;;;;;;;10.37;6.30;;;;;;;4.71;100.00;102463.03;4866657;29;20949;-87
2022/01/20 03:03:38;;;;;;;8.80;5.27;;;;;;;4.65;100.00;102468.91;4853259;29;20553;-87
2022/01/20 03:06:51;;;;;;;13.77;6.33;;;;;;;4.73;100.00;102474.63;4864068;29;20451;-87
2022/01/20 03:09:56;;;;;;;17.13;7.00;;;;;;;4.59;100.00;102442.28;4881075;29;20531;-87
2022/01/20 03:12:59;;;;;;;;;;;;;;;;;;;;;
2022/01/20 03:16:34;;;;;;;13.97;6.30;;;;;;;4.70;100.00;102449.59;4853821;29;20450;-88
2022/01/20 03:19:39;;;;;;;9.50;6.00;;;;;;;4.77;100.00;102484.25;4865380;29;20453;-87
2022/01/20 03:22:41;;;;;;;9.07;5.20;;;;;;;4.65;100.00;102477.03;4880773;29;20550;-87
2022/01/20 03:25:45;;;;;;;13.83;6.97;;;;;;;4.67;100.00;102466.94;4873501;29;20973;-88
2022/01/20 03:29:18;;;;;;;12.80;6.60;;;;;;;4.69;100.00;102464.13;4874129;29;20870;-86
2022/01/20 03:32:11;;;;;;;9.60;5.77;;;;;;;4.50;100.00;102427.56;4868745;29;20473;-87
2022/01/20 03:35:07;;;;;;;8.33;4.73;;;;;;;4.60;100.00;102464.81;4868220;29;20972;-87
2022/01/20 03:41:57;;;;;;;7.20;4.80;;;;;;;4.52;99.86;102443.72;4887983;29;20450;-87
2022/01/20 03:47:43;;;;;;;;;;;;;;;;;;;;;
2022/01/20 03:51:05;;;;;;;8.10;4.73;;;;;;;4.52;100.00;102457.25;4927382;29;20477;-86
2022/01/20 03:54:07;;;;;;;;;;;;;;;;;;;;;
2022/01/20 04:01:04;;;;;;;5.63;3.60;;;;;;;4.35;100.00;102450.38;4849279;29;20809;-86
2022/01/20 04:04:14;;;;;;;12.03;3.90;;;;;;;4.35;100.00;102463.03;4786040;29;20447;-86
2022/01/20 04:07:53;;;;;;;8.83;5.27;;;;;;;4.13;100.00;102429.41;4704375;30;20451;-87
2022/01/20 04:14:44;;;;;;;;;;;;;;;;;;;;;
2022/01/20 04:18:02;;;;;;;7.43;5.13;;;;;;;4.19;99.92;102446.19;4596666;31;20497;-86
2022/01/20 04:21:45;;;;;;;;;;;;;;;;;;;;;
2022/01/20 04:25:04;;;;;;;7.20;4.87;;;;;;;4.10;99.95;102435.03;4563834;31;20614;-88
2022/01/20 04:57:19;;;;;;;11.97;6.97;;;;;;;4.15;100.00;102416.63;4637153;30;20481;-88
2022/01/20 05:00:19;;;;;;;10.70;5.50;;;;;;;4.05;99.80;102404.72;4682883;30;20459;-87
2022/01/20 05:03:49;;;;;;;11.03;4.60;;;;;;;3.93;99.30;102388.53;4702517;30;20459;-88
2022/01/20 05:07:22;;;;;;;11.47;5.90;;;;;;;3.98;99.49;102408.88;4711638;30;20848;-88
2022/01/20 05:10:44;;;;;;;8.00;4.10;;;;;;;3.84;98.80;102403.59;4741715;29;20499;-88
2022/01/20 05:14:28;;;;;;;;;;;;;;;;;;;;;
2022/01/20 05:18:17;;;;;;;;;;;;;;;;;;;;;
2022/01/20 05:22:03;;;;;;;8.50;4.87;;;;;;;3.73;100.00;102389.97;4701852;30;20766;-87
2022/01/20 05:25:02;;;;;;;11.00;5.30;;;;;;;3.77;99.84;102407.69;4700270;30;20447;-88
2022/01/20 05:39:43;;;;;;;;;;;;;;;;;;;;;
2022/01/20 06:11:35;;;;;;;8.33;3.93;;;;;;;3.59;100.00;102392.78;4793108;29;20510;-89
2022/01/20 06:15:01;;;;;;;8.17;4.57;;;;;;;3.85;100.00;102417.97;4789298;30;20451;-89
2022/01/20 06:17:47;;;;;;;8.20;3.53;;;;;;;3.76;100.00;102396.00;4786618;29;20490;-88
2022/01/20 06:20:58;;;;;;;8.33;4.27;;;;;;;3.85;100.00;102404.47;4822426;29;20458;-88
2022/01/20 06:24:03;;;;;;;8.67;3.70;;;;;;;3.84;100.00;102400.03;4862761;29;20479;-89
2022/01/20 06:27:12;;;;;;;17.30;4.07;;;;;;;3.93;100.00;102413.75;4857536;29;20442;-88
2022/01/20 06:30:40;;;;;;;8.70;4.43;;;;;;;3.92;100.00;102414.72;4884501;29;20445;-86
2022/01/20 07:52:33;;;;;;;9.17;5.73;;;;;;;3.06;99.22;102446.84;6014696;23;20413;-89
2022/01/20 08:04:16;;;;;;;18.90;7.30;;;;;;;2.86;100.00;102428.44;5827011;24;20457;-88
2022/01/20 08:10:53;;;;;;;24.53;12.17;;;;;;;3.13;100.00;102453.56;5865145;24;20389;-88
2022/01/20 08:13:38;;;;;;;23.83;10.60;;;;;;;3.18;100.00;102455.09;5069192;27;20568;-88
2022/01/20 08:16:14;;;;;;;23.50;10.13;;;;;;;3.11;100.00;102449.22;5036287;28;20488;-89
2022/01/20 08:18:44;;;;;;;15.00;7.60;;;;;;;3.20;100.00;102447.75;5048898;28;20449;-88
2022/01/20 08:21:21;;;;;;;10.23;5.93;;;;;;;3.23;99.92;102453.81;5070061;28;20469;-86
2022/01/20 08:23:49;;;;;;;13.13;6.80;;;;;;;3.29;100.00;102447.97;5056969;28;20788;-88
2022/01/20 08:26:18;;;;;;;15.97;7.10;;;;;;;3.30;100.00;102455.09;5045385;28;20457;-86
2022/01/20 08:32:40;;;;;;;17.10;6.80;;;;;;;3.44;100.00;102468.56;5063868;28;20472;-88
2022/01/20 08:35:10;;;;;;;17.27;7.90;;;;;;;3.41;100.00;102457.97;5063018;28;20533;-88
2022/01/20 08:37:42;;;;;;;22.33;9.60;;;;;;;3.59;100.00;102481.97;5068011;28;20442;-87
2022/01/20 08:40:12;;;;;;;36.30;8.20;;;;;;;3.65;100.00;102466.22;5049398;28;20972;-88
2022/01/20 08:42:44;;;;;;;22.03;7.93;;;;;;;3.70;100.00;102465.88;5033374;28;20442;-88
2022/01/20 08:45:18;;;;;;;26.57;7.20;;;;;;;3.83;100.00;102464.06;5049313;28;20438;-88
2022/01/20 08:47:52;;;;;;;16.90;6.80;;;;;;;3.93;100.00;102462.44;5036889;28;20442;-87
2022/01/20 08:50:21;;;;;;;12.53;6.97;;;;;;;3.90;100.00;102449.13;5050581;28;20533;-88
2022/01/20 08:52:49;;;;;;;14.57;7.90;;;;;;;4.06;100.00;102470.53;5050639;28;20536;-88
2022/01/20 08:55:17;;;;;;;12.17;7.20;;;;;;;4.10;100.00;102470.19;5036041;28;20469;-88
2022/01/20 08:58:00;;;;;;;19.27;8.07;;;;;;;4.21;100.00;102479.41;5035348;28;20450;-91
2022/01/20 09:00:29;;;;;;;15.27;8.63;;;;;;;4.33;100.00;102478.50;5070085;28;20437;-89
2022/01/20 09:02:57;;;;;;;19.80;9.93;;;;;;;4.45;100.00;102483.03;5028164;28;20503;-89
2022/01/20 09:05:32;;;;;;;23.47;9.80;;;;;;;4.58;100.00;102478.47;5035668;28;20442;-88
2022/01/20 09:08:01;;;;;;;18.47;9.37;;;;;;;4.74;100.00;102476.34;5021519;28;20537;-88
2022/01/20 09:10:38;;;;;;;15.50;8.00;;;;;;;4.88;100.00;102469.03;5023189;28;20446;-87
2022/01/20 09:15:57;;;;;;;17.93;7.57;;;;;;;5.27;100.00;102455.19;5068753;28;20445;-87
2022/01/20 09:18:26;;;;;;;25.20;8.73;;;;;;;5.44;100.00;102451.16;5049763;28;20441;-88
2022/01/20 09:20:54;;;;;;;22.30;9.00;;;;;;;5.64;100.00;102447.78;5031431;28;20447;-87
2022/01/20 09:23:23;;;;;;;16.37;7.63;;;;;;;5.84;100.00;102454.34;5030941;28;20941;-86
2022/01/20 09:25:53;;;;;;;26.00;11.20;;;;;;;6.02;100.00;102463.78;5054348;28;20442;-86
2022/01/20 09:28:21;;;;;;;19.40;8.77;;;;;;;6.19;100.00;102459.72;5020103;28;20436;-87
2022/01/20 09:30:50;;;;;;;21.57;10.10;;;;;;;6.36;100.00;102455.63;5026624;28;20453;-93
2022/01/20 09:33:29;;;;;;;22.43;11.07;;;;;;;6.57;100.00;102464.75;5039097;28;20520;-89
2022/01/20 09:35:57;;;;;;;20.07;9.60;;;;;;;6.68;100.00;102462.03;5041264;28;20462;-86
2022/01/20 09:42:06;;;;;;;16.80;8.13;;;;;;;7.03;100.00;102452.78;5055966;28;20491;-86
2022/01/20 09:44:34;;;;;;;19.90;9.17;;;;;;;7.36;100.00;102468.97;5020733;28;20432;-87
2022/01/20 09:47:01;;;;;;;18.83;9.13;;;;;;;7.57;100.00;102471.69;5036114;28;20526;-87
2022/01/20 09:49:29;;;;;;;18.43;8.83;;;;;;;7.77;100.00;102472.72;5021004;28;20451;-86
2022/01/20 09:51:58;;;;;;;14.53;7.30;;;;;;;8.02;100.00;102474.16;5021586;28;20488;-91
2022/01/20 09:54:32;;;;;;;11.80;8.17;;;;;;;8.36;100.00;102472.06;5037274;28;20452;-86
2022/01/20 09:57:00;;;;;;;14.70;6.80;;;;;;;8.60;100.00;102475.31;5051953;28;20820;-86
2022/01/20 09:59:30;;;;;;;10.90;6.47;;;;;;;8.78;100.00;102479.09;5020554;28;20439;-86
2022/01/20 10:02:00;;;;;;;10.80;6.30;;;;;;;8.99;100.00;102488.03;5053416;28;20457;-85
2022/01/20 10:04:32;;;;;;;15.50;7.30;;;;;;;9.16;100.00;102488.34;5068762;28;20434;-85
2022/01/20 10:07:04;;;;;;;11.03;6.23;;;;;;;9.35;100.00;102485.63;5037564;28;20430;-84
2022/01/20 10:09:39;;;;;;;10.90;6.30;;;;;;;9.52;100.00;102479.47;5020903;28;20431;-83
2022/01/20 10:12:09;;;;;;;18.77;6.43;;;;;;;9.72;100.00;102487.63;5020766;28;20485;-85
2022/01/20 10:14:43;;;;;;;11.30;6.30;;;;;;;9.91;100.00;102493.06;5016931;28;20443;-86
2022/01/20 10:17:21;;;;;;;10.97;6.80;;;;;;;10.00;100.00;102475.81;5032967;28;20438;-86
2022/01/20 10:19:58;;;;;;;15.10;7.40;;;;;;;10.18;100.00;102493.16;5018749;28;20451;-86
2022/01/20 10:22:31;;;;;;;14.97;7.73;;;;;;;10.33;100.00;102488.97;5049180;28;20443;-90
2022/01/20 10:25:19;;;;;;;14.03;7.90;;;;;;;10.44;100.00;102474.22;5052941;28;20449;-89
2022/01/20 10:27:55;;;;;;;12.00;6.20;;;;;;;10.58;100.00;102471.00;5018093;28;20453;-89
2022/01/20 10:30:24;;;;;;;13.87;7.47;;;;;;;10.72;100.00;102469.66;5035111;28;20869;-88
2022/01/20 10:32:55;;;;;;;15.97;8.10;;;;;;;10.87;100.00;102473.56;5019636;28;20482;-86
2022/01/20 10:35:34;;;;;;;13.07;7.60;;;;;;;11.01;100.00;102475.78;5016817;28;20489;-87
2022/01/20 10:38:14;;;;;;;12.97;7.43;;;;;;;11.18;100.00;102468.59;5035299;28;20449;-88
2022/01/20 10:40:56;;;;;;;19.13;7.60;;;;;;;11.30;100.00;102466.50;5021946;28;20819;-89
2022/01/20 10:43:29;;;;;;;21.00;8.03;;;;;;;11.44;99.96;102457.75;5021148;28;20456;-88
2022/01/20 10:46:14;;;;;;;15.80;9.63;;;;;;;11.63;100.00;102467.66;5017850;28;20450;-88
2022/01/20 10:48:41;;;;;;;15.60;9.57;;;;;;;11.71;99.69;102468.59;5051916;28;20950;-87
2022/01/20 10:51:16;;;;;;;17.60;9.30;;;;;;;11.82;99.86;102467.50;5035238;28;20430;-87
2022/01/20 10:53:43;;;;;;;18.87;9.10;;;;;;;11.93;99.87;102458.19;5035527;28;20496;-88
2022/01/20 10:56:11;;;;;;;20.90;10.13;;;;;;;12.07;100.00;102460.31;5017572;28;20416;-87
2022/01/20 10:58:42;;;;;;;12.40;8.30;;;;;;;12.21;100.00;102450.63;5017019;28;20454;-88
2022/01/20 11:01:15;;;;;;;15.67;8.60;;;;;;;12.32;100.00;102444.84;5053265;28;20438;-87
2022/01/20 11:03:45;;;;;;;22.63;9.90;;;;;;;12.45;100.00;102445.28;5020190;28;20546;-87
2022/01/20 11:06:15;;;;;;;19.03;9.30;;;;;;;12.57;100.00;102445.84;5048122;28;20443;-87
2022/01/20 11:08:44;;;;;;;21.50;10.50;;;;;;;12.65;100.00;102424.78;5035584;28;20450;-88
2022/01/20 11:11:16;;;;;;;20.20;9.00;;;;;;;12.82;100.00;102428.44;5044788;28;20436;-86
2022/01/20 11:13:44;;;;;;;20.97;9.40;;;;;;;12.91;100.00;102424.66;5043037;28;20553;-88
2022/01/20 11:16:14;;;;;;;17.30;9.37;;;;;;;13.05;100.00;102432.28;5034959;28;20433;-88
2022/01/20 11:18:46;;;;;;;20.87;10.20;;;;;;;13.19;100.00;102430.78;5055047;28;20542;-87
2022/01/20 11:21:25;;;;;;;13.63;8.13;;;;;;;13.26;100.00;102406.25;5035390;28;20561;-88
2022/01/20 11:23:56;;;;;;;18.67;8.87;;;;;;;13.46;100.00;102405.75;5020010;28;20438;-88
2022/01/20 11:26:24;;;;;;;17.60;8.37;;;;;;;13.60;100.00;102414.31;5034981;28;20474;-87
2022/01/20 11:28:58;;;;;;;13.07;8.40;;;;;;;13.76;100.00;102417.03;5033008;28;20428;-87
2022/01/20 11:31:31;;;;;;;11.73;7.80;;;;;;;13.86;100.00;102411.34;5033064;28;20439;-87
2022/01/20 11:34:01;;;;;;;20.83;8.13;;;;;;;13.96;100.00;102406.53;4999143;28;20483;-88
2022/01/20 11:36:31;;;;;;;24.20;8.50;;;;;;;14.04;100.00;102401.88;5030288;28;20440;-88
2022/01/20 11:39:19;;;;;;;19.53;8.27;;;;;;;14.15;100.00;102406.13;5017554;28;20434;-88
2022/01/20 11:41:52;;;;;;;15.03;7.50;;;;;;;14.24;100.00;102402.31;4995555;28;20568;-88
2022/01/20 11:44:26;;;;;;;17.20;8.07;;;;;;;14.38;100.00;102403.47;4987551;28;20491;-88
2022/01/20 11:47:07;;;;;;;12.90;7.37;;;;;;;14.48;100.00;102405.00;5031797;28;20448;-88
2022/01/20 11:49:44;;;;;;;20.53;8.40;;;;;;;14.56;100.00;102387.59;5015716;28;20507;-88
2022/01/20 11:52:27;;;;;;;14.23;8.20;;;;;;;14.66;100.00;102392.88;5021382;28;20957;-89
2022/01/20 11:55:19;;;;;;;15.10;7.93;;;;;;;14.69;100.00;102384.25;5030992;28;21010;-90
2022/01/20 11:57:50;;;;;;;20.33;8.60;;;;;;;14.71;99.78;102384.94;5023227;28;20459;-88
2022/01/20 12:00:32;;;;;;;22.97;8.30;;;;;;;14.81;99.82;102386.44;5021884;28;20471;-90
2022/01/20 12:03:13;;;;;;;13.10;8.43;;;;;;;14.97;99.51;102377.22;5055411;28;20859;-90
2022/01/20 12:05:44;;;;;;;12.10;8.10;;;;;;;15.04;99.17;102353.38;5024011;28;20829;-89
2022/01/20 12:08:23;;;;;;;13.00;7.17;;;;;;;15.14;98.08;102353.16;5016104;28;20447;-90
2022/01/20 12:11:04;;;;;;;17.73;8.10;;;;;;;15.13;97.86;102343.19;5021837;28;20449;-90
2022/01/20 12:13:55;;;;;;;17.33;7.50;;;;;;;15.18;97.42;102344.34;5033062;28;20491;-89
2022/01/20 12:16:28;;;;;;;13.00;7.60;;;;;;;15.46;97.81;102352.00;5018100;28;20445;-89
2022/01/20 12:19:05;;;;;;;34.77;8.53;;;;;;;15.57;98.08;102337.81;5037789;28;20441;-89
2022/01/20 12:21:47;;;;;;;10.30;6.90;;;;;;;15.73;97.30;102326.63;5056609;28;20483;-89
2022/01/20 12:24:16;;;;;;;12.97;7.90;;;;;;;15.82;96.83;102308.06;5027332;28;20436;-88
2022/01/20 12:26:44;;;;;;;12.80;8.20;;;;;;;15.83;96.03;102304.25;5024720;28;20945;-88
2022/01/20 12:29:11;;;;;;;12.60;7.20;;;;;;;15.89;96.09;102318.16;5034581;28;20542;-88
2022/01/20 12:31:48;;;;;;;16.03;7.53;;;;;;;15.89;95.23;102311.78;5031026;28;20501;-88
2022/01/20 12:34:16;;;;;;;12.87;7.20;;;;;;;15.73;95.67;102310.06;5051355;28;20474;-88
2022/01/20 12:36:51;;;;;;;10.10;6.10;;;;;;;15.68;95.73;102317.19;5019260;28;20447;-87
2022/01/20 12:48:18;;;;;;;11.27;6.43;;;;;;;15.65;94.77;102290.84;5095691;28;20807;-86
2022/01/20 12:51:10;;;;;;;11.70;6.77;;;;;;;15.86;93.83;102295.63;5100178;28;20960;-86
2022/01/20 12:53:41;;;;;;;10.10;5.90;;;;;;;15.91;92.83;102289.53;5084567;28;20467;-86
2022/01/20 12:56:13;;;;;;;11.40;6.17;;;;;;;15.82;92.63;102280.50;5122307;28;20449;-86
2022/01/20 12:58:51;;;;;;;7.83;4.27;;;;;;;15.91;92.38;102289.53;5065272;28;20505;-86
2022/01/20 13:01:20;;;;;;;6.53;4.33;;;;;;;16.04;92.47;102284.19;5092073;28;20967;-86
2022/01/20 13:03:48;;;;;;;10.23;5.30;;;;;;;16.19;92.06;102268.47;5076337;28;20481;-86
2022/01/20 13:06:32;;;;;;;12.03;5.53;;;;;;;16.41;90.93;102272.97;5085443;28;20461;-92
2022/01/20 13:09:11;;;;;;;7.03;4.50;;;;;;;16.61;89.75;102264.06;5101244;28;20432;-88
2022/01/20 13:11:52;;;;;;;8.53;4.80;;;;;;;16.74;88.06;102278.06;5086553;28;20952;-90
2022/01/20 13:14:22;;;;;;;17.43;4.80;;;;;;;16.82;87.67;102266.84;5114848;28;20936;-87
2022/01/20 13:16:52;;;;;;;16.83;6.83;;;;;;;16.89;86.95;102271.41;5073807;28;20445;-88
2022/01/20 13:19:21;;;;;;;10.27;5.03;;;;;;;17.02;86.64;102265.13;5097406;28;20469;-87
2022/01/20 13:21:54;;;;;;;13.73;4.47;;;;;;;17.03;86.67;102249.41;5078396;28;20446;-86
2022/01/20 13:24:28;;;;;;;14.20;4.50;;;;;;;17.15;85.69;102256.94;5104307;28;20491;-88
2022/01/20 13:26:58;;;;;;;12.57;4.80;;;;;;;17.27;86.03;102260.03;5086199;28;20436;-88
2022/01/20 13:29:38;;;;;;;6.30;3.90;;;;;;;17.37;86.42;102260.53;5096190;28;20432;-88
2022/01/20 13:32:08;;;;;;;10.67;5.00;;;;;;;17.47;85.70;102254.66;5111303;28;20443;-88
2022/01/20 13:34:36;;;;;;;9.10;4.20;;;;;;;17.49;85.43;102247.00;5098571;28;20951;-88
2022/01/20 13:37:13;;;;;;;7.53;4.23;;;;;;;17.61;84.63;102248.16;5060903;28;20444;-87
2022/01/20 13:39:44;;;;;;;7.80;4.30;;;;;;;17.66;84.42;102245.66;5075781;28;20474;-88
2022/01/20 13:42:30;;;;;;;8.77;4.87;;;;;;;17.71;84.90;102232.06;5078166;28;20439;-88
2022/01/20 13:45:14;;;;;;;9.87;4.93;;;;;;;17.81;84.51;102234.47;5079676;28;20488;-89
2022/01/20 13:56:56;;;;;;;11.73;5.40;;;;;;;18.11;83.07;102226.69;5226227;22;20677;-89
2022/01/20 13:59:27;;;;;;;12.80;5.30;;;;;;;18.11;83.56;102215.63;4975088;28;20581;-89
2022/01/20 14:01:59;;;;;;;19.40;5.93;;;;;;;18.19;83.18;102216.31;4998080;28;20456;-88
2022/01/20 14:04:38;;;;;;;9.90;4.90;;;;;;;18.20;82.78;102211.63;4983639;28;20537;-88
2022/01/20 14:07:06;;;;;;;8.60;4.50;;;;;;;18.19;82.82;102198.84;4977254;28;20467;-88
2022/01/20 14:09:36;;;;;;;9.60;4.50;;;;;;;18.15;82.59;102203.94;4982373;28;20459;-88
2022/01/20 14:12:07;;;;;;;10.93;5.57;;;;;;;18.07;81.77;102208.84;4998100;28;20475;-89
2022/01/20 14:14:38;;;;;;;10.23;4.87;;;;;;;18.00;81.87;102206.03;4984190;28;20476;-88
2022/01/20 14:17:22;;;;;;;11.17;4.97;;;;;;;17.96;82.81;102193.66;4982741;28;20962;-89
2022/01/20 14:19:57;;;;;;;12.47;5.67;;;;;;;17.89;82.07;102196.44;4995461;28;20947;-88
2022/01/20 14:22:27;;;;;;;9.53;5.80;;;;;;;17.90;81.98;102200.88;4970451;28;20488;-89
2022/01/20 14:32:55;;;;;;;23.43;6.70;;;;;;;17.94;82.95;102193.88;5008095;28;20900;-89
2022/01/20 14:35:49;;;;;;;9.23;5.63;;;;;;;17.97;82.75;102191.75;5024724;28;20456;-89
2022/01/20 14:38:48;;;;;;;8.83;5.17;;;;;;;17.97;82.11;102184.31;4995050;28;20791;-89
2022/01/20 14:41:31;;;;;;;12.27;5.70;;;;;;;17.90;81.81;102181.50;4994143;28;20440;-89
2022/01/20 14:43:59;;;;;;;10.80;5.23;;;;;;;17.90;81.34;102183.41;4973469;28;20453;-89
2022/01/20 14:46:31;;;;;;;9.90;4.63;;;;;;;17.88;80.39;102180.88;4995876;28;20440;-88
2022/01/20 14:48:59;;;;;;;9.23;5.23;;;;;;;17.92;80.19;102181.31;4982935;28;20535;-87
2022/01/20 14:51:31;;;;;;;10.10;4.40;;;;;;;17.93;79.49;102178.31;4967284;28;20460;-88
2022/01/20 14:53:58;;;;;;;13.43;5.10;;;;;;;17.90;79.28;102170.44;4983281;28;20507;-88
2022/01/20 14:56:27;;;;;;;10.23;4.70;;;;;;;17.91;78.86;102166.63;4990885;28;20468;-88
2022/01/20 14:58:55;;;;;;;7.67;4.80;;;;;;;17.91;78.96;102169.38;4995448;28;20474;-90
2022/01/20 15:01:24;;;;;;;7.73;5.70;;;;;;;17.90;78.97;102155.75;4981585;28;20441;-88
2022/01/20 15:04:20;;;;;;;7.60;4.83;;;;;;;17.89;78.61;102154.94;4965818;28;20480;-89
2022/01/20 15:06:53;;;;;;;11.47;5.40;;;;;;;17.87;78.71;102150.66;4996419;28;20467;-90
2022/01/20 15:09:38;;;;;;;9.17;5.40;;;;;;;17.82;78.92;102154.03;5006190;28;20433;-90
2022/01/20 15:16:06;;;;;;;10.60;5.33;;;;;;;17.74;78.14;102123.78;5029133;28;20438;-90
2022/01/20 15:18:40;;;;;;;7.53;5.00;;;;;;;17.79;77.82;102126.78;4997060;28;20425;-90
2022/01/20 18:52:09;;;;;;;13.30;7.80;;;;;;;11.79;100.00;102209.47;5582476;23;20868;-88
2022/01/20 18:54:37;;;;;;;17.80;9.40;;;;;;;11.71;100.00;102199.31;4941065;29;20474;-89
2022/01/20 18:57:04;;;;;;;16.40;8.03;;;;;;;11.63;100.00;102200.13;4958940;28;20455;-88
2022/01/20 18:59:38;;;;;;;12.00;5.90;;;;;;;11.61;100.00;102206.78;4925712;28;21016;-89
2022/01/20 19:02:15;;;;;;;9.10;5.30;;;;;;;11.55;100.00;102208.31;4958844;28;20465;-88
2022/01/20 19:04:43;;;;;;;14.30;4.63;;;;;;;11.46;100.00;102206.56;4943381;28;20499;-88
2022/01/20 19:07:20;;;;;;;11.50;6.67;;;;;;;11.43;100.00;102209.63;4945473;28;20939;-89
2022/01/20 19:09:52;;;;;;;15.27;6.97;;;;;;;11.36;100.00;102214.03;4936621;28;20470;-88
2022/01/20 19:12:25;;;;;;;15.57;8.97;;;;;;;11.26;100.00;102199.63;4927821;28;20513;-89
2022/01/20 19:14:53;;;;;;;8.90;5.80;;;;;;;11.20;100.00;102197.53;4965968;28;20492;-89
2022/01/20 19:17:31;;;;;;;16.37;5.67;;;;;;;11.11;100.00;102198.50;4951959;28;20438;-90
2022/01/20 19:55:29;;;;;;;7.33;4.30;;;;;;;9.83;100.00;102222.59;4971365;28;20570;-88
2022/01/20 20:03:18;;;;;;;10.83;5.10;;;;;;;9.56;100.00;102232.50;4975752;28;20413;-88
2022/01/20 20:05:46;;;;;;;8.90;4.87;;;;;;;9.40;100.00;102218.66;4985063;28;20510;-88
2022/01/20 20:08:41;;;;;;;25.83;8.30;;;;;;;9.46;100.00;102228.97;4927492;29;20450;-88
2022/01/20 20:11:19;;;;;;;11.90;6.87;;;;;;;9.33;100.00;102217.53;4965451;28;20463;-88
2022/01/20 20:14:16;;;;;;;12.17;5.97;;;;;;;9.27;100.00;102218.13;4941461;28;20513;-88
2022/01/20 20:16:58;;;;;;;11.10;7.20;;;;;;;9.26;100.00;102216.41;4918559;28;20458;-88
2022/01/20 20:20:24;;;;;;;;;;;;;;;;;;;;;
2022/01/20 20:23:03;;;;;;;25.90;11.10;;;;;;;9.27;100.00;102232.63;4916160;29;20855;-89
2022/01/20 20:25:36;;;;;;;25.23;11.07;;;;;;;9.18;100.00;102227.22;4929649;29;20828;-88
2022/01/20 20:28:05;;;;;;;28.60;11.47;;;;;;;9.12;100.00;102222.34;4892639;29;20445;-88
2022/01/20 20:30:34;;;;;;;23.93;10.67;;;;;;;9.10;100.00;102229.81;4893841;29;20451;-88
2022/01/20 20:33:04;;;;;;;27.90;13.50;;;;;;;9.03;100.00;102217.78;4908707;29;20448;-87
2022/01/20 21:09:50;;;;;;;21.77;11.03;;;;;;;8.06;100.00;102206.94;4935863;29;20997;-88
2022/01/20 21:12:42;;;;;;;36.20;9.43;;;;;;;8.06;100.00;102204.19;4919970;29;20526;-87
2022/01/20 21:18:59;;;;;;;13.23;6.13;;;;;;;7.99;100.00;102208.47;4909222;29;20444;-88
2022/01/20 21:21:27;;;;;;;16.27;6.37;;;;;;;7.91;100.00;102208.31;4916015;29;20449;-88
2022/01/20 21:23:55;;;;;;;14.37;7.03;;;;;;;7.82;100.00;102196.41;4925217;29;20461;-88
2022/01/20 21:26:23;;;;;;;13.77;7.90;;;;;;;7.81;100.00;102200.16;4894468;29;20558;-88
2022/01/20 21:36:52;;;;;;;19.07;11.33;;;;;;;7.68;100.00;102194.09;4901255;29;20393;-87
2022/01/20 21:39:20;;;;;;;17.90;9.60;;;;;;;7.60;100.00;102199.38;4896303;29;20505;-87
2022/01/20 21:42:05;;;;;;;23.77;13.50;;;;;;;7.63;100.00;102221.72;4888538;29;20456;-91
2022/01/20 21:44:35;;;;;;;27.67;12.50;;;;;;;7.62;100.00;102220.00;4887609;29;20504;-87
2022/01/20 21:47:08;;;;;;;23.60;11.87;;;;;;;7.54;100.00;102213.50;4905195;29;20449;-88
2022/01/20 21:49:36;;;;;;;23.43;12.30;;;;;;;7.48;100.00;102214.09;4869922;29;20446;-88
2022/01/20 21:55:57;;;;;;;17.03;11.07;;;;;;;7.31;100.00;102220.19;4941425;29;20419;-87
2022/01/20 21:58:25;;;;;;;17.43;10.30;;;;;;;7.37;100.00;102231.34;4910541;29;20926;-87
2022/01/20 22:00:54;;;;;;;22.60;12.93;;;;;;;7.33;100.00;102227.19;4911902;29;20513;-86
2022/01/20 22:03:26;;;;;;;23.50;14.07;;;;;;;7.32;100.00;102233.59;4929205;29;20446;-87
2022/01/20 22:05:57;;;;;;;18.83;12.53;;;;;;;7.25;100.00;102224.28;4926558;29;20480;-87
2022/01/20 22:08:27;;;;;;;26.50;14.60;;;;;;;7.28;100.00;102226.75;4938578;29;20538;-88